ADDS METAR Data INFO
IDs: Format: Raw Decoded Include TAF

Data at: 0107 UTC 24 Jun 2018

KPOU 240053Z 08004KT 10SM OVC011 18/15 A2982 RMK AO2 SLP094 T01780150
KPOU 232353Z 10003KT 10SM OVC014 18/14 A2982 RMK AO2 SLP094 T01780144 10183 20172 53000
KPOU 232253Z 00000KT 10SM OVC013 18/14 A2981 RMK AO2 SLP091 T01780144
KPOU 232153Z 11003KT 10SM OVC013 18/14 A2981 RMK AO2 SLP091 T01780144
KPOU 232053Z 04004KT 10SM OVC014 18/14 A2982 RMK AO2 SLP093 T01830139 58013
KPOU 232026Z 05006KT 10SM OVC014 18/14 A2983 RMK AO2 T01780139
KPOU 231953Z 09003KT 10SM OVC015 18/14 A2984 RMK AO2 SLP100 T01780139
KPOU 231853Z 06005KT 10SM OVC016 18/14 A2984 RMK AO2 SLP101 T01830139
KPOU 231753Z 09005KT 10SM OVC017 18/13 A2986 RMK AO2 SLP106 T01780133 10183 20167 58012
KPOU 231653Z 05008KT 10SM OVC019 18/13 A2987 RMK AO2 SLP110 T01780128
KPOU 231553Z 08006KT 10SM OVC022 18/13 A2988 RMK AO2 SLP115 T01830128
KPOU 231453Z 09005KT 10SM OVC025 18/11 A2989 RMK AO2 SLP117 T01780106 56010
KPOU 231353Z 09008KT 10SM OVC025 17/09 A2989 RMK AO2 SLP119 T01720089
KPOU 231253Z 36004KT 10SM OVC025 17/08 A2991 RMK AO2 SLP125 T01720083
KPOU 231153Z 03004KT 10SM OVC031 17/09 A2992 RMK AO2 RAB33E45 SLP128 P0000 60000 T01670089 10178 20167 56005
KPOU 231053Z AUTO 04005KT 10SM OVC033 17/08 A2992 RMK AO2 SLP129 T01720078
KPOU 230953Z AUTO 10003KT 10SM BKN034 OVC050 17/08 A2993 RMK AO2 SLP131 T01720078
KPOU 230853Z AUTO 00000KT 10SM BKN036 OVC046 17/08 A2994 RMK AO2 SLP133 T01720083 56018
KPOU 230753Z AUTO VRB03KT 10SM BKN039 OVC065 17/09 A2995 RMK AO2 SLP138 T01670094
KPOU 230653Z AUTO 15005KT 10SM BKN060 OVC075 17/09 A2996 RMK AO2 SLP142 T01670094
KPOU 230553Z AUTO 15004KT 10SM OVC080 17/09 A2999 RMK AO2 SLP151 T01720094 10217 20172 56006
KPOU 230453Z AUTO VRB03KT 10SM CLR 18/11 A3000 RMK AO2 SLP153 T01830106 402560133
KPOU 230353Z AUTO 09003KT 10SM FEW110 18/13 A3000 RMK AO2 SLP155 T01830133
KPOU 230253Z AUTO 14003KT 10SM CLR 19/14 A3001 RMK AO2 SLP158 T01890139 53006
KPOU 230153Z AUTO VRB04KT 10SM CLR 19/13 A3000 RMK AO2 SLP154 T01940128
KPOU 230053Z 11004KT 10SM CLR 20/11 A2998 RMK AO2 SLP149 T02000111
KPOU 222353Z 13003KT 10SM CLR 22/11 A2999 RMK AO2 SLP151 T02170111 10256 20217 55000
KPOU 222253Z 14005KT 10SM CLR 23/12 A2999 RMK AO2 SLP150 T02280117
KPOU 222153Z 14006KT 10SM CLR 23/11 A2998 RMK AO2 SLP148 T02280111
KPOU 222053Z 17008KT 130V200 10SM CLR 24/13 A2999 RMK AO2 SLP152 T02440133 55001
KPOU 221953Z 14008KT 10SM CLR 25/12 A2999 RMK AO2 SLP151 T02500122
KPOU 221853Z 14006KT 10SM CLR 25/13 A2999 RMK AO2 SLP151 T02500128
KPOU 221753Z 13007KT 10SM CLR 25/12 A2999 RMK AO2 SLP152 T02500122 10256 20161 58006
KPOU 221653Z VRB04KT 10SM CLR 25/12 A3000 RMK AO2 SLP155 T02500122
KPOU 221553Z VRB04KT 10SM CLR 25/12 A3001 RMK AO2 SLP157 T02500122
KPOU 221453Z VRB04KT 10SM BKN048 22/11 A3001 RMK AO2 SLP159 T02220111 58001
KPOU 221353Z VRB04KT 10SM CLR 20/09 A3002 RMK AO2 SLP160 T02000089